createdAt,value
2023-03-21T00:00:44.398Z,8.13
2023-03-21T00:03:11.727Z,7.47
2023-03-21T00:05:42.862Z,7.18
2023-03-21T00:08:10.070Z,8.43
2023-03-21T00:10:43.113Z,7.43
2023-03-21T00:13:15.255Z,6.95
2023-03-21T00:16:08.302Z,7.05
2023-03-21T00:18:48.613Z,7.07
2023-03-21T00:24:06.511Z,6.97
2023-03-21T00:26:33.886Z,7.80
2023-03-21T00:29:01.122Z,6.97
2023-03-21T00:31:28.255Z,7.55
2023-03-21T00:33:55.424Z,7.68
2023-03-21T00:36:25.982Z,7.68
2023-03-21T00:38:53.259Z,7.13
2023-03-21T00:41:35.237Z,6.88
2023-03-21T00:44:07.904Z,7.03
2023-03-21T00:46:44.073Z,7.63
2023-03-21T00:49:16.517Z,8.00
2023-03-21T00:51:44.437Z,7.43
2023-03-21T00:54:12.482Z,5.10
2023-03-21T00:56:41.016Z,7.78
2023-03-21T00:59:08.162Z,7.55
2023-03-21T01:01:37.143Z,7.35
2023-03-21T01:04:10.835Z,6.38
2023-03-21T01:06:41.604Z,7.88
2023-03-21T01:09:12.276Z,8.00
2023-03-21T01:11:39.382Z,7.85
2023-03-21T01:14:21.251Z,8.18
2023-03-21T01:16:49.642Z,8.27
2023-03-21T01:19:25.661Z,8.00
2023-03-21T01:21:55.288Z,7.38
2023-03-21T01:24:22.485Z,7.70
2023-03-21T01:26:49.621Z,8.23
2023-03-21T01:29:16.784Z,7.03
2023-03-21T01:31:44.080Z,7.55
2023-03-21T01:34:11.279Z,8.02
2023-03-21T01:36:38.399Z,6.47
2023-03-21T01:39:09.666Z,7.75
2023-03-21T01:41:45.678Z,7.20
2023-03-21T01:44:19.989Z,7.30
2023-03-21T01:49:59.806Z,8.32
2023-03-21T01:52:38.752Z,7.38
2023-03-21T01:55:14.197Z,7.97
2023-03-21T01:58:03.922Z,7.95
2023-03-21T02:00:34.648Z,7.85
2023-03-21T02:03:26.136Z,7.80
2023-03-21T02:06:12.052Z,7.55
2023-03-21T02:08:42.328Z,7.22
2023-03-21T02:11:13.609Z,7.40
2023-03-21T02:13:43.742Z,7.53
2023-03-21T02:16:14.165Z,7.03
2023-03-21T02:18:54.504Z,7.97
2023-03-21T02:21:54.315Z,7.45
2023-03-21T02:25:01.456Z,6.18
2023-03-21T02:27:35.032Z,7.30
2023-03-21T02:32:47.285Z,6.55
2023-03-21T02:35:50.434Z,7.28
2023-03-21T02:38:49.680Z,7.13
2023-03-21T02:41:29.847Z,6.78
2023-03-21T02:44:05.644Z,7.05
2023-03-21T02:46:43.897Z,6.30
2023-03-21T02:49:27.910Z,6.35
2023-03-21T02:52:00.310Z,7.22
2023-03-21T02:54:47.330Z,7.50
2023-03-21T02:57:19.308Z,7.03
2023-03-21T02:59:55.565Z,7.03
2023-03-21T03:02:29.403Z,8.02
2023-03-21T03:04:56.927Z,6.00
2023-03-21T03:07:41.539Z,7.18
2023-03-21T03:10:08.607Z,8.18
2023-03-21T03:13:13.161Z,7.22
2023-03-21T03:15:54.910Z,7.25
2023-03-21T03:18:29.567Z,6.55
2023-03-21T03:21:05.637Z,8.05
2023-03-21T03:23:43.836Z,8.13
2023-03-21T03:26:22.120Z,8.68
2023-03-21T03:28:51.510Z,8.82
2023-03-21T03:31:26.121Z,9.15
2023-03-21T03:34:00.820Z,8.13
2023-03-21T03:36:33.117Z,8.20
2023-03-21T03:39:06.603Z,9.05
2023-03-21T03:42:02.890Z,9.52
2023-03-21T03:44:30.211Z,9.90
2023-03-21T03:47:07.398Z,8.60
2023-03-21T03:49:49.198Z,9.48
2023-03-21T03:52:22.186Z,9.18
2023-03-21T03:54:55.887Z,9.73
2023-03-21T03:57:26.437Z,9.65
2023-03-21T03:59:54.807Z,10.10
2023-03-21T04:02:25.929Z,10.57
2023-03-21T04:04:57.761Z,11.15
2023-03-21T04:07:25.167Z,10.52
2023-03-21T04:09:54.629Z,11.73
2023-03-21T04:12:21.885Z,11.38
2023-03-21T04:15:24.364Z,11.30
2023-03-21T04:17:58.290Z,11.27
2023-03-21T04:20:36.186Z,11.02
2023-03-21T04:23:04.146Z,11.60
2023-03-21T04:25:34.695Z,11.27
2023-03-21T04:28:03.828Z,11.50
2023-03-21T04:31:03.763Z,11.82
2023-03-21T04:33:43.093Z,11.13
2023-03-21T04:36:25.938Z,10.77
2023-03-21T04:38:57.091Z,9.15
2023-03-21T04:41:24.431Z,10.27
2023-03-21T04:43:52.588Z,9.82
2023-03-21T04:46:20.693Z,8.13
2023-03-21T04:48:51.268Z,9.35
2023-03-21T04:51:18.370Z,9.35
2023-03-21T04:53:49.136Z,8.43
2023-03-21T04:56:16.398Z,8.75
2023-03-21T04:58:44.612Z,8.90
2023-03-21T05:01:14.452Z,8.63
2023-03-21T05:03:42.440Z,8.05
2023-03-21T05:06:10.687Z,8.52
2023-03-21T05:08:37.752Z,8.27
2023-03-21T05:11:05.517Z,6.45
2023-03-21T05:13:32.696Z,8.23
2023-03-21T05:15:59.770Z,8.93
2023-03-21T05:18:26.874Z,8.43
2023-03-21T05:21:10.602Z,7.40
2023-03-21T05:23:42.075Z,6.85
2023-03-21T05:26:10.181Z,7.30
2023-03-21T05:28:44.591Z,7.72
2023-03-21T05:31:15.708Z,8.00
2023-03-21T05:33:46.646Z,7.65
2023-03-21T05:36:16.934Z,7.32
2023-03-21T05:38:46.101Z,5.75
2023-03-21T05:41:14.536Z,6.45
2023-03-21T05:43:41.881Z,6.63
2023-03-21T05:46:09.378Z,5.22
2023-03-21T05:48:36.613Z,6.68
2023-03-21T05:51:12.795Z,5.78
2023-03-21T05:53:40.203Z,5.22
2023-03-21T05:56:08.562Z,5.60
2023-03-21T05:58:42.264Z,6.22
2023-03-21T06:01:09.548Z,5.57
2023-03-21T06:03:39.228Z,8.65
2023-03-21T06:06:13.063Z,7.85
2023-03-21T06:08:48.705Z,9.50
2023-03-21T06:11:23.111Z,9.43
2023-03-21T06:13:52.605Z,9.63
2023-03-21T06:16:22.455Z,10.50
2023-03-21T06:18:49.959Z,9.40
2023-03-21T06:21:32.356Z,9.38
2023-03-21T06:23:59.510Z,10.65
2023-03-21T06:26:26.669Z,11.32
2023-03-21T06:28:54.745Z,11.15
2023-03-21T06:31:26.486Z,11.80
2023-03-21T06:34:00.120Z,11.68
2023-03-21T06:36:27.282Z,7.65
2023-03-21T06:38:54.455Z,11.02
2023-03-21T06:41:21.771Z,9.00
2023-03-21T06:43:59.450Z,11.63
2023-03-21T06:46:27.282Z,11.27
2023-03-21T06:48:54.397Z,11.50
2023-03-21T06:51:21.698Z,10.90
2023-03-21T06:54:06.773Z,11.88
2023-03-21T06:56:41.616Z,11.43
2023-03-21T07:01:54.333Z,11.65
2023-03-21T07:04:21.498Z,11.23
2023-03-21T07:06:49.697Z,11.65
2023-03-21T07:09:19.819Z,11.38
2023-03-21T07:11:47.682Z,11.27
2023-03-21T07:14:14.833Z,9.50
2023-03-21T07:16:42.002Z,8.43
2023-03-21T07:19:09.197Z,6.80
2023-03-21T07:21:36.326Z,8.95
2023-03-21T07:24:04.054Z,10.93
2023-03-21T07:26:31.234Z,10.48
2023-03-21T07:28:59.382Z,9.60
2023-03-21T07:31:27.546Z,10.20
2023-03-21T07:33:54.756Z,9.93
2023-03-21T07:36:23.262Z,10.00
2023-03-21T07:38:50.837Z,8.50
2023-03-21T07:41:22.954Z,10.38
2023-03-21T07:43:52.448Z,9.35
2023-03-21T07:46:19.614Z,9.48
2023-03-21T07:48:49.048Z,9.82
2023-03-21T07:51:16.253Z,9.13
2023-03-21T07:53:43.849Z,9.65
2023-03-21T07:56:11.002Z,6.07
2023-03-21T07:58:38.064Z,6.90
2023-03-21T08:01:05.217Z,8.82
2023-03-21T08:03:33.639Z,9.50
2023-03-21T08:06:01.371Z,7.85
2023-03-21T08:08:28.561Z,8.02
2023-03-21T08:10:55.658Z,8.55
2023-03-21T08:13:23.049Z,8.93
2023-03-21T08:15:50.273Z,8.90
2023-03-21T08:18:17.365Z,7.85
2023-03-21T08:20:44.432Z,7.20
2023-03-21T08:23:11.521Z,8.13
2023-03-21T08:25:39.266Z,4.80
2023-03-21T08:28:06.628Z,5.13
2023-03-21T08:30:33.741Z,5.15
2023-03-21T08:33:02.006Z,4.47
2023-03-21T08:35:30.196Z,5.55
2023-03-21T08:37:57.369Z,4.85
2023-03-21T08:40:24.633Z,5.82
2023-03-21T08:42:51.711Z,4.10
2023-03-21T08:45:18.969Z,4.47
2023-03-21T08:47:46.395Z,4.35
2023-03-21T08:50:15.611Z,4.40
2023-03-21T08:52:42.747Z,5.78
2023-03-21T08:55:10.493Z,4.00
2023-03-21T08:57:37.663Z,4.18
2023-03-21T09:00:24.230Z,5.63
2023-03-21T09:02:52.348Z,4.80
2023-03-21T09:05:19.852Z,6.75
2023-03-21T09:07:47.230Z,6.88
2023-03-21T09:10:22.211Z,6.18
2023-03-21T09:12:53.430Z,6.28
2023-03-21T09:15:21.634Z,5.63
2023-03-21T09:17:52.634Z,5.75
2023-03-21T09:20:25.847Z,7.03
2023-03-21T09:22:53.261Z,5.82
2023-03-21T09:25:21.072Z,5.63
2023-03-21T09:27:49.300Z,4.13
2023-03-21T09:30:17.878Z,5.07
2023-03-21T09:32:49.328Z,4.10
2023-03-21T09:35:18.793Z,4.50
2023-03-21T09:37:47.221Z,5.68
2023-03-21T09:40:34.177Z,7.00
2023-03-21T09:43:05.914Z,5.10
2023-03-21T09:45:38.481Z,6.75
2023-03-21T09:48:07.531Z,4.35
2023-03-21T09:50:36.296Z,4.65
2023-03-21T09:53:10.674Z,5.65
2023-03-21T09:55:40.016Z,5.68
2023-03-21T09:58:13.815Z,3.42
2023-03-21T10:00:43.279Z,6.35
2023-03-21T10:03:28.146Z,5.65
2023-03-21T10:05:58.584Z,5.68
2023-03-21T10:08:28.890Z,3.95
2023-03-21T10:10:57.283Z,4.10
2023-03-21T10:13:26.012Z,5.63
2023-03-21T10:16:00.998Z,5.63
2023-03-21T10:18:29.772Z,4.85
2023-03-21T10:20:57.503Z,4.40
2023-03-21T10:23:27.576Z,3.30
2023-03-21T10:26:06.482Z,3.05
2023-03-21T10:28:49.893Z,3.13
2023-03-21T10:31:21.995Z,3.25
2023-03-21T10:33:50.145Z,2.67
2023-03-21T10:36:27.835Z,3.42
2023-03-21T10:38:56.893Z,3.83
2023-03-21T10:41:24.041Z,3.50
2023-03-21T10:44:05.281Z,2.85
2023-03-21T10:46:35.913Z,4.03
2023-03-21T10:49:03.610Z,3.08
2023-03-21T10:51:36.437Z,4.30
2023-03-21T10:54:09.254Z,4.50
2023-03-21T10:56:38.477Z,4.70
2023-03-21T10:59:08.111Z,3.70
2023-03-21T11:01:35.280Z,3.75
2023-03-21T11:04:06.715Z,3.17
2023-03-21T11:06:37.690Z,2.97
2023-03-21T11:09:08.258Z,4.38
2023-03-21T11:11:38.032Z,2.55
2023-03-21T11:14:09.589Z,4.57
2023-03-21T11:16:40.507Z,4.13
2023-03-21T11:19:15.376Z,5.00
2023-03-21T11:21:42.647Z,4.80
2023-03-21T11:24:20.090Z,4.60
2023-03-21T11:26:48.793Z,3.63
2023-03-21T11:29:51.519Z,3.22
2023-03-21T11:32:21.846Z,5.30
2023-03-21T11:34:58.565Z,4.07
2023-03-21T11:37:32.075Z,5.15
2023-03-21T11:40:17.867Z,5.32
2023-03-21T11:42:48.086Z,5.57
2023-03-21T11:45:28.842Z,6.10
2023-03-21T11:47:57.320Z,6.55
2023-03-21T11:50:28.361Z,4.82
2023-03-21T11:53:02.891Z,4.25
2023-03-21T11:55:39.397Z,4.40
2023-03-21T11:58:27.764Z,5.55
2023-03-21T12:00:57.935Z,5.90
2023-03-21T12:03:25.479Z,6.30
2023-03-21T12:05:54.942Z,6.30
2023-03-21T12:08:43.707Z,6.50
2023-03-21T12:11:30.278Z,4.57
2023-03-21T12:14:07.144Z,4.07
2023-03-21T12:19:17.664Z,5.55
2023-03-21T12:22:03.729Z,5.85
2023-03-21T12:24:34.189Z,5.18
2023-03-21T12:27:16.591Z,7.22
2023-03-21T12:30:02.180Z,7.20
2023-03-21T12:32:35.846Z,6.35
2023-03-21T12:35:09.178Z,7.13
2023-03-21T12:38:06.069Z,4.75
2023-03-21T12:40:55.799Z,3.05
2023-03-21T12:43:41.493Z,6.25
2023-03-21T12:46:22.023Z,4.47
2023-03-21T12:48:52.320Z,6.85
2023-03-21T12:51:20.964Z,6.30
2023-03-21T12:53:59.011Z,6.80
2023-03-21T12:56:46.423Z,6.75
2023-03-21T12:59:34.931Z,5.50
2023-03-21T13:02:13.733Z,7.13
2023-03-21T13:05:00.062Z,5.72
2023-03-21T13:07:28.891Z,6.95
2023-03-21T13:09:57.835Z,4.60
2023-03-21T13:12:40.354Z,7.93
2023-03-21T13:15:12.506Z,5.07
2023-03-21T13:17:44.690Z,6.53
2023-03-21T13:20:20.061Z,5.82
2023-03-21T13:22:47.196Z,5.05
2023-03-21T13:25:24.935Z,6.30
2023-03-21T13:27:53.357Z,4.22
2023-03-21T13:30:26.402Z,5.35
2023-03-21T13:33:17.274Z,3.78
2023-03-21T13:35:45.796Z,4.97
2023-03-21T13:38:16.916Z,4.03
2023-03-21T13:40:50.213Z,5.78
2023-03-21T13:43:43.645Z,5.88
2023-03-21T13:46:11.221Z,4.97
2023-03-21T13:48:49.433Z,5.00
2023-03-21T13:51:29.141Z,3.70
2023-03-21T13:54:17.605Z,5.55
2023-03-21T13:56:47.776Z,4.82
2023-03-21T13:59:18.514Z,5.68
2023-03-21T14:02:06.052Z,4.28
2023-03-21T14:04:41.984Z,5.43
2023-03-21T14:07:15.275Z,5.55
2023-03-21T14:09:49.107Z,7.25
2023-03-21T14:12:17.811Z,6.40
2023-03-21T14:14:47.358Z,6.57
2023-03-21T14:17:16.246Z,4.60
2023-03-21T14:19:43.344Z,6.20
2023-03-21T14:22:12.148Z,4.72
2023-03-21T14:24:41.231Z,5.90
2023-03-21T14:27:08.880Z,4.90
2023-03-21T14:29:36.105Z,5.07
2023-03-21T14:32:04.258Z,5.47
2023-03-21T14:34:32.896Z,5.72
2023-03-21T14:37:00.329Z,5.68
2023-03-21T14:39:29.397Z,6.00
2023-03-21T14:41:57.849Z,5.53
2023-03-21T14:44:27.858Z,5.57
2023-03-21T14:47:03.153Z,6.30
2023-03-21T14:49:31.876Z,5.43
2023-03-21T14:52:01.696Z,5.32
2023-03-21T14:54:29.301Z,4.97
2023-03-21T14:57:03.960Z,6.07
2023-03-21T14:59:35.839Z,5.50
2023-03-21T15:02:04.847Z,6.72
2023-03-21T15:04:32.816Z,4.45
2023-03-21T15:07:04.312Z,5.15
2023-03-21T15:09:34.464Z,5.68
2023-03-21T15:12:02.070Z,4.97
2023-03-21T15:14:34.432Z,5.90
2023-03-21T15:17:03.985Z,4.95
2023-03-21T15:19:36.229Z,5.13
2023-03-21T15:22:23.214Z,5.40
2023-03-21T15:24:53.293Z,4.78
2023-03-21T15:27:24.287Z,5.10
2023-03-21T15:29:56.874Z,5.75
2023-03-21T15:32:25.623Z,5.13
2023-03-21T15:34:54.356Z,5.28
2023-03-21T15:37:26.853Z,5.55
2023-03-21T15:39:55.419Z,5.20
2023-03-21T15:42:29.842Z,4.47
2023-03-21T15:44:58.246Z,5.40
2023-03-21T15:47:41.731Z,5.75
2023-03-21T15:50:11.338Z,5.55
2023-03-21T15:52:38.730Z,5.85
2023-03-21T15:55:13.758Z,5.80
2023-03-21T15:57:46.702Z,5.90
2023-03-21T16:00:18.816Z,6.03
2023-03-21T16:02:46.541Z,5.90
2023-03-21T16:05:30.719Z,6.00
2023-03-21T16:08:26.295Z,6.32
2023-03-21T16:10:53.431Z,6.13
2023-03-21T16:13:20.680Z,7.22
2023-03-21T16:15:47.814Z,6.72
2023-03-21T16:18:16.127Z,7.10
2023-03-21T16:20:44.534Z,7.07
2023-03-21T16:23:12.416Z,6.05
2023-03-21T16:25:40.182Z,6.13
2023-03-21T16:28:11.230Z,7.55
2023-03-21T16:30:38.562Z,5.57
2023-03-21T16:33:05.849Z,6.80
2023-03-21T16:35:33.010Z,9.82
2023-03-21T16:38:00.256Z,8.70
2023-03-21T16:40:27.593Z,6.80
2023-03-21T16:42:54.905Z,12.48
2023-03-21T16:45:23.008Z,7.75
2023-03-21T16:47:50.757Z,6.82
2023-03-21T16:50:21.115Z,7.38
2023-03-21T16:52:48.562Z,8.02
2023-03-21T16:55:15.926Z,7.80
2023-03-21T16:57:43.284Z,6.10
2023-03-21T17:00:13.161Z,5.50
2023-03-21T17:02:40.512Z,7.03
2023-03-21T17:05:07.687Z,6.20
2023-03-21T17:07:34.823Z,6.32
2023-03-21T17:10:01.977Z,6.03
2023-03-21T17:12:29.092Z,6.20
2023-03-21T17:14:56.194Z,5.95
2023-03-21T17:17:23.308Z,6.80
2023-03-21T17:19:50.429Z,5.53
2023-03-21T17:22:17.528Z,6.53
2023-03-21T17:24:44.677Z,6.25
2023-03-21T17:27:14.476Z,6.03
2023-03-21T17:29:41.689Z,5.53
2023-03-21T17:32:08.808Z,5.72
2023-03-21T17:34:35.945Z,5.53
2023-03-21T17:37:03.395Z,5.35
2023-03-21T17:39:32.114Z,5.60
2023-03-21T17:41:59.217Z,5.70
2023-03-21T17:44:26.513Z,5.55
2023-03-21T17:46:53.690Z,4.68
2023-03-21T17:49:21.063Z,4.70
2023-03-21T17:51:48.272Z,4.97
2023-03-21T17:54:15.369Z,4.70
2023-03-21T17:56:42.541Z,4.63
2023-03-21T17:59:13.085Z,4.80
2023-03-21T18:01:41.380Z,4.85
2023-03-21T18:04:08.582Z,4.28
2023-03-21T18:06:37.287Z,3.85
2023-03-21T18:09:10.997Z,4.40
2023-03-21T18:11:39.089Z,5.05
2023-03-21T18:14:15.933Z,5.50
2023-03-21T18:16:45.364Z,4.90
2023-03-21T18:19:13.261Z,5.20
2023-03-21T18:21:40.768Z,5.10
2023-03-21T18:24:08.677Z,4.25
2023-03-21T18:26:36.240Z,4.20
2023-03-21T18:30:03.881Z,4.55
2023-03-21T18:32:04.815Z,4.68
2023-03-21T18:34:32.936Z,9.50
2023-03-21T18:37:03.701Z,5.03
2023-03-21T18:39:31.563Z,5.35
2023-03-21T18:42:02.549Z,6.50
2023-03-21T18:44:37.243Z,4.38
2023-03-21T18:47:05.218Z,5.43
2023-03-21T18:52:19.908Z,5.55
2023-03-21T18:54:47.619Z,4.75
2023-03-21T19:00:09.327Z,4.78
2023-03-21T19:02:43.246Z,4.40
2023-03-21T19:05:13.597Z,4.40
2023-03-21T19:07:40.858Z,4.18
2023-03-21T19:10:18.722Z,4.47
2023-03-21T19:12:47.806Z,4.53
2023-03-21T19:15:17.726Z,4.20
2023-03-21T19:18:26.586Z,4.22
2023-03-21T19:20:32.296Z,4.90
2023-03-21T19:22:59.372Z,5.10
2023-03-21T19:25:26.486Z,4.13
2023-03-21T19:27:53.637Z,4.18
2023-03-21T19:30:21.513Z,4.20
2023-03-21T19:32:48.626Z,4.15
2023-03-21T19:35:16.306Z,4.05
2023-03-21T19:37:43.959Z,3.45
2023-03-21T19:40:11.251Z,3.47
2023-03-21T19:42:38.470Z,3.53
2023-03-21T19:45:06.161Z,3.10
2023-03-21T19:47:33.329Z,4.90
2023-03-21T19:50:47.701Z,5.32
2023-03-21T19:52:47.749Z,6.00
2023-03-21T19:55:14.897Z,8.75
2023-03-21T19:57:42.114Z,6.65
2023-03-21T20:00:11.251Z,5.60
2023-03-21T20:02:38.625Z,9.60
2023-03-21T20:05:07.803Z,19.27
2023-03-21T20:07:35.102Z,12.32
2023-03-21T20:10:02.336Z,21.05
2023-03-21T20:12:29.484Z,15.25
2023-03-21T20:15:10.387Z,38.08
2023-03-21T20:17:43.904Z,8.85
2023-03-21T20:20:14.385Z,5.95
2023-03-21T20:25:29.916Z,4.47
2023-03-21T20:28:14.689Z,4.20
2023-03-21T20:30:47.359Z,3.40
2023-03-21T20:33:14.605Z,3.85
2023-03-21T20:38:33.041Z,4.05
2023-03-21T20:41:04.054Z,2.83
2023-03-21T20:46:18.531Z,3.58
2023-03-21T20:48:48.735Z,3.13
2023-03-21T20:54:03.568Z,3.92
2023-03-21T20:56:30.664Z,4.60
2023-03-21T20:59:14.630Z,4.53
2023-03-21T21:01:45.233Z,5.63
2023-03-21T21:04:15.201Z,5.65
2023-03-21T21:06:43.754Z,5.47
2023-03-21T21:09:10.888Z,6.15
2023-03-21T21:14:25.183Z,4.97
2023-03-21T21:16:52.484Z,3.88
2023-03-21T21:19:21.684Z,4.97
2023-03-21T21:21:49.829Z,5.40
2023-03-21T21:24:16.975Z,4.22
2023-03-21T21:26:46.257Z,5.55
2023-03-21T21:29:17.097Z,4.97
2023-03-21T21:31:46.658Z,4.88
2023-03-21T21:34:15.522Z,4.38
2023-03-21T21:36:44.848Z,4.55
2023-03-21T21:39:16.089Z,4.20
2023-03-21T21:41:43.568Z,4.25
2023-03-21T21:44:11.257Z,4.32
2023-03-21T21:46:38.761Z,3.92
2023-03-21T21:49:06.019Z,3.90
2023-03-21T21:51:34.003Z,4.05
2023-03-21T21:54:03.785Z,4.18
2023-03-21T21:56:32.091Z,3.55
2023-03-21T21:59:02.691Z,3.85
2023-03-21T22:01:30.517Z,3.50
2023-03-21T22:04:05.890Z,3.17
2023-03-21T22:06:33.951Z,2.95
2023-03-21T22:09:02.074Z,2.75
2023-03-21T22:11:29.144Z,2.50
2023-03-21T22:13:56.329Z,2.58
2023-03-21T22:16:23.584Z,2.00
2023-03-21T22:18:50.706Z,2.10
2023-03-21T22:21:17.829Z,1.90
2023-03-21T22:23:45.082Z,2.30
2023-03-21T22:26:12.324Z,1.88
2023-03-21T22:28:42.178Z,2.10
2023-03-21T22:31:11.343Z,2.55
2023-03-21T22:33:38.596Z,2.30
2023-03-21T22:36:06.113Z,2.35
2023-03-21T22:38:34.355Z,2.03
2023-03-21T22:41:02.737Z,1.90
2023-03-21T22:43:30.170Z,1.80
2023-03-21T22:45:57.388Z,2.13
2023-03-21T22:48:24.602Z,1.92
2023-03-21T22:50:51.757Z,1.85
2023-03-21T22:53:20.072Z,1.95
2023-03-21T22:55:47.156Z,1.73
2023-03-21T22:58:14.284Z,1.75
2023-03-21T23:00:41.557Z,1.60
2023-03-21T23:03:08.758Z,1.80
2023-03-21T23:05:40.055Z,1.70
2023-03-21T23:08:07.239Z,1.92
2023-03-21T23:10:34.349Z,1.73
2023-03-21T23:13:01.485Z,1.50
2023-03-21T23:15:28.637Z,1.85
2023-03-21T23:17:55.756Z,1.90
2023-03-21T23:20:22.921Z,2.05
2023-03-21T23:22:49.993Z,2.03
2023-03-21T23:25:20.401Z,1.92
2023-03-21T23:27:47.727Z,1.40
2023-03-21T23:30:14.870Z,1.50
2023-03-21T23:32:42.345Z,1.63
2023-03-21T23:35:09.733Z,1.30
2023-03-21T23:37:36.959Z,1.50
2023-03-21T23:40:08.944Z,1.50
2023-03-21T23:42:36.243Z,1.45
2023-03-21T23:45:03.380Z,1.60
2023-03-21T23:47:31.004Z,2.03
2023-03-21T23:49:58.265Z,1.95
2023-03-21T23:52:25.514Z,1.50
2023-03-21T23:54:52.577Z,1.65
2023-03-21T23:57:19.853Z,1.45
2023-03-21T23:59:47.197Z,1.55
